sensor_id;sensor_type;location;lat;lon;timestamp;temperature;humidity
58993;DHT22;44782;0.000;0.000;2023-08-24T00:01:03;26.20;63.20
58993;DHT22;44782;0.000;0.000;2023-08-24T00:03:19;26.20;63.20
58993;DHT22;44782;0.000;0.000;2023-08-24T00:05:36;26.20;63.20
58993;DHT22;44782;0.000;0.000;2023-08-24T00:07:52;26.20;63.20
58993;DHT22;44782;0.000;0.000;2023-08-24T00:10:08;26.20;63.30
58993;DHT22;44782;0.000;0.000;2023-08-24T00:12:24;26.20;63.30
58993;DHT22;44782;0.000;0.000;2023-08-24T00:14:39;26.20;63.20
58993;DHT22;44782;0.000;0.000;2023-08-24T00:16:55;26.20;63.30
58993;DHT22;44782;0.000;0.000;2023-08-24T00:19:11;26.20;63.30
58993;DHT22;44782;0.000;0.000;2023-08-24T00:21:27;26.10;63.10
58993;DHT22;44782;0.000;0.000;2023-08-24T00:23:44;26.10;63.10
58993;DHT22;44782;0.000;0.000;2023-08-24T00:25:59;26.10;63.20
58993;DHT22;44782;0.000;0.000;2023-08-24T00:28:15;26.10;63.10
58993;DHT22;44782;0.000;0.000;2023-08-24T00:30:31;26.10;63.10
58993;DHT22;44782;0.000;0.000;2023-08-24T00:32:47;26.10;63.10
58993;DHT22;44782;0.000;0.000;2023-08-24T00:35:03;26.00;63.00
58993;DHT22;44782;0.000;0.000;2023-08-24T00:37:19;26.00;63.10
58993;DHT22;44782;0.000;0.000;2023-08-24T00:39:35;26.00;63.10
58993;DHT22;44782;0.000;0.000;2023-08-24T00:44:06;26.00;63.00
58993;DHT22;44782;0.000;0.000;2023-08-24T00:46:27;26.00;63.10
58993;DHT22;44782;0.000;0.000;2023-08-24T00:48:43;26.00;62.90
58993;DHT22;44782;0.000;0.000;2023-08-24T00:51:00;26.00;63.00
58993;DHT22;44782;0.000;0.000;2023-08-24T00:53:16;26.00;62.90
58993;DHT22;44782;0.000;0.000;2023-08-24T00:55:33;26.00;62.90
58993;DHT22;44782;0.000;0.000;2023-08-24T00:57:49;26.00;62.90
58993;DHT22;44782;0.000;0.000;2023-08-24T01:00:06;26.00;62.80
58993;DHT22;44782;0.000;0.000;2023-08-24T01:02:25;26.00;62.80
58993;DHT22;44782;0.000;0.000;2023-08-24T01:04:41;26.00;62.70
58993;DHT22;44782;0.000;0.000;2023-08-24T01:06:58;26.00;62.80
58993;DHT22;44782;0.000;0.000;2023-08-24T01:09:14;26.00;62.80
58993;DHT22;44782;0.000;0.000;2023-08-24T01:12:04;26.00;62.80
58993;DHT22;44782;0.000;0.000;2023-08-24T01:16:50;25.90;62.50
58993;DHT22;44782;0.000;0.000;2023-08-24T01:21:43;25.90;62.40
58993;DHT22;44782;0.000;0.000;2023-08-24T01:24:32;25.90;62.70
58993;DHT22;44782;0.000;0.000;2023-08-24T01:26:51;26.00;62.30
58993;DHT22;44782;0.000;0.000;2023-08-24T01:29:08;25.90;62.60
58993;DHT22;44782;0.000;0.000;2023-08-24T01:31:24;25.90;62.60
58993;DHT22;44782;0.000;0.000;2023-08-24T01:33:40;25.90;62.70
58993;DHT22;44782;0.000;0.000;2023-08-24T01:35:56;25.90;62.70
58993;DHT22;44782;0.000;0.000;2023-08-24T01:38:11;25.90;62.70
58993;DHT22;44782;0.000;0.000;2023-08-24T01:40:54;25.90;62.80
58993;DHT22;44782;0.000;0.000;2023-08-24T01:43:14;25.90;62.40
58993;DHT22;44782;0.000;0.000;2023-08-24T01:45:32;25.80;62.70
58993;DHT22;44782;0.000;0.000;2023-08-24T01:47:48;25.80;62.60
58993;DHT22;44782;0.000;0.000;2023-08-24T01:50:05;25.80;62.60
58993;DHT22;44782;0.000;0.000;2023-08-24T01:52:21;25.80;62.60
58993;DHT22;44782;0.000;0.000;2023-08-24T01:54:38;25.80;62.60
58993;DHT22;44782;0.000;0.000;2023-08-24T01:56:54;25.80;62.60
58993;DHT22;44782;0.000;0.000;2023-08-24T01:59:10;25.80;62.50
58993;DHT22;44782;0.000;0.000;2023-08-24T02:01:25;25.80;62.50
58993;DHT22;44782;0.000;0.000;2023-08-24T02:03:41;25.80;62.50
58993;DHT22;44782;0.000;0.000;2023-08-24T02:05:57;25.80;62.50
58993;DHT22;44782;0.000;0.000;2023-08-24T02:10:28;25.80;62.50
58993;DHT22;44782;0.000;0.000;2023-08-24T02:12:43;25.80;62.50
58993;DHT22;44782;0.000;0.000;2023-08-24T02:14:59;25.80;62.50
58993;DHT22;44782;0.000;0.000;2023-08-24T02:17:15;25.80;62.60
58993;DHT22;44782;0.000;0.000;2023-08-24T02:19:31;25.80;62.60
58993;DHT22;44782;0.000;0.000;2023-08-24T02:21:46;25.80;62.50
58993;DHT22;44782;0.000;0.000;2023-08-24T02:24:04;25.70;62.50
58993;DHT22;44782;0.000;0.000;2023-08-24T02:26:19;25.80;62.50
58993;DHT22;44782;0.000;0.000;2023-08-24T02:28:37;25.80;62.50
58993;DHT22;44782;0.000;0.000;2023-08-24T02:30:53;25.80;62.50
58993;DHT22;44782;0.000;0.000;2023-08-24T02:33:09;25.80;62.50
58993;DHT22;44782;0.000;0.000;2023-08-24T02:35:25;25.80;62.40
58993;DHT22;44782;0.000;0.000;2023-08-24T02:37:41;25.80;62.50
58993;DHT22;44782;0.000;0.000;2023-08-24T02:39:57;25.80;62.50
58993;DHT22;44782;0.000;0.000;2023-08-24T02:42:12;25.70;62.40
58993;DHT22;44782;0.000;0.000;2023-08-24T02:44:28;25.70;62.40
58993;DHT22;44782;0.000;0.000;2023-08-24T02:46:44;25.70;62.20
58993;DHT22;44782;0.000;0.000;2023-08-24T02:49:00;25.70;62.10
58993;DHT22;44782;0.000;0.000;2023-08-24T02:51:16;25.70;62.00
58993;DHT22;44782;0.000;0.000;2023-08-24T02:53:32;25.70;62.00
58993;DHT22;44782;0.000;0.000;2023-08-24T02:55:48;25.70;61.80
58993;DHT22;44782;0.000;0.000;2023-08-24T02:58:03;25.70;61.80
58993;DHT22;44782;0.000;0.000;2023-08-24T03:00:19;25.60;61.60
58993;DHT22;44782;0.000;0.000;2023-08-24T03:02:35;25.60;61.50
58993;DHT22;44782;0.000;0.000;2023-08-24T03:04:51;25.60;61.40
58993;DHT22;44782;0.000;0.000;2023-08-24T03:07:07;25.60;61.30
58993;DHT22;44782;0.000;0.000;2023-08-24T03:09:25;25.60;61.20
58993;DHT22;44782;0.000;0.000;2023-08-24T03:11:41;25.50;61.10
58993;DHT22;44782;0.000;0.000;2023-08-24T03:13:57;25.50;61.00
58993;DHT22;44782;0.000;0.000;2023-08-24T03:16:13;25.50;61.00
58993;DHT22;44782;0.000;0.000;2023-08-24T03:18:28;25.50;61.00
58993;DHT22;44782;0.000;0.000;2023-08-24T03:20:45;25.50;60.80
58993;DHT22;44782;0.000;0.000;2023-08-24T03:23:01;25.40;60.70
58993;DHT22;44782;0.000;0.000;2023-08-24T03:25:18;25.40;60.70
58993;DHT22;44782;0.000;0.000;2023-08-24T03:27:34;25.40;60.70
58993;DHT22;44782;0.000;0.000;2023-08-24T03:29:53;25.40;60.60
58993;DHT22;44782;0.000;0.000;2023-08-24T03:32:08;25.40;60.50
58993;DHT22;44782;0.000;0.000;2023-08-24T03:34:24;25.30;60.40
58993;DHT22;44782;0.000;0.000;2023-08-24T03:36:40;25.30;60.40
58993;DHT22;44782;0.000;0.000;2023-08-24T03:38:55;25.30;60.40
58993;DHT22;44782;0.000;0.000;2023-08-24T03:41:11;25.20;60.40
58993;DHT22;44782;0.000;0.000;2023-08-24T03:43:27;25.20;60.40
58993;DHT22;44782;0.000;0.000;2023-08-24T03:45:42;25.20;60.50
58993;DHT22;44782;0.000;0.000;2023-08-24T03:47:59;25.20;60.50
58993;DHT22;44782;0.000;0.000;2023-08-24T03:50:15;25.20;60.50
58993;DHT22;44782;0.000;0.000;2023-08-24T03:52:31;25.20;60.50
58993;DHT22;44782;0.000;0.000;2023-08-24T03:54:46;25.10;60.50
58993;DHT22;44782;0.000;0.000;2023-08-24T03:57:02;25.10;60.50
58993;DHT22;44782;0.000;0.000;2023-08-24T03:59:18;25.20;60.50
58993;DHT22;44782;0.000;0.000;2023-08-24T04:01:33;25.20;60.50
58993;DHT22;44782;0.000;0.000;2023-08-24T04:03:49;25.10;60.40
58993;DHT22;44782;0.000;0.000;2023-08-24T04:06:05;25.20;60.30
58993;DHT22;44782;0.000;0.000;2023-08-24T04:08:21;25.20;60.30
58993;DHT22;44782;0.000;0.000;2023-08-24T04:10:37;25.20;60.30
58993;DHT22;44782;0.000;0.000;2023-08-24T04:12:53;25.20;60.30
58993;DHT22;44782;0.000;0.000;2023-08-24T04:15:09;25.20;60.20
58993;DHT22;44782;0.000;0.000;2023-08-24T04:17:25;25.20;60.20
58993;DHT22;44782;0.000;0.000;2023-08-24T04:19:41;25.20;60.20
58993;DHT22;44782;0.000;0.000;2023-08-24T04:21:56;25.20;60.20
58993;DHT22;44782;0.000;0.000;2023-08-24T04:24:12;25.30;60.30
58993;DHT22;44782;0.000;0.000;2023-08-24T04:26:28;25.30;60.20
58993;DHT22;44782;0.000;0.000;2023-08-24T04:28:43;25.30;60.20
58993;DHT22;44782;0.000;0.000;2023-08-24T04:30:59;25.30;60.10
58993;DHT22;44782;0.000;0.000;2023-08-24T04:33:15;25.30;60.90
58993;DHT22;44782;0.000;0.000;2023-08-24T04:35:34;25.30;60.10
58993;DHT22;44782;0.000;0.000;2023-08-24T04:37:50;25.30;60.00
58993;DHT22;44782;0.000;0.000;2023-08-24T04:40:06;25.30;60.20
58993;DHT22;44782;0.000;0.000;2023-08-24T04:42:26;25.30;60.90
58993;DHT22;44782;0.000;0.000;2023-08-24T04:44:42;25.30;60.10
58993;DHT22;44782;0.000;0.000;2023-08-24T04:46:58;25.30;60.10
58993;DHT22;44782;0.000;0.000;2023-08-24T04:49:13;25.30;60.10
58993;DHT22;44782;0.000;0.000;2023-08-24T04:51:29;25.30;60.10
58993;DHT22;44782;0.000;0.000;2023-08-24T04:53:45;25.30;60.10
58993;DHT22;44782;0.000;0.000;2023-08-24T04:56:00;25.30;60.10
58993;DHT22;44782;0.000;0.000;2023-08-24T04:58:16;25.30;60.20
58993;DHT22;44782;0.000;0.000;2023-08-24T05:00:32;25.30;60.10
58993;DHT22;44782;0.000;0.000;2023-08-24T05:02:48;25.30;60.10
58993;DHT22;44782;0.000;0.000;2023-08-24T05:05:04;25.30;60.10
58993;DHT22;44782;0.000;0.000;2023-08-24T05:07:20;25.30;60.10
58993;DHT22;44782;0.000;0.000;2023-08-24T05:09:36;25.30;60.10
58993;DHT22;44782;0.000;0.000;2023-08-24T05:11:52;25.30;60.10
58993;DHT22;44782;0.000;0.000;2023-08-24T05:14:07;25.30;60.10
58993;DHT22;44782;0.000;0.000;2023-08-24T05:16:23;25.30;60.10
58993;DHT22;44782;0.000;0.000;2023-08-24T05:18:40;25.30;60.10
58993;DHT22;44782;0.000;0.000;2023-08-24T05:20:55;25.30;60.20
58993;DHT22;44782;0.000;0.000;2023-08-24T05:23:11;25.30;60.30
58993;DHT22;44782;0.000;0.000;2023-08-24T05:25:27;25.20;60.30
58993;DHT22;44782;0.000;0.000;2023-08-24T05:27:43;25.20;60.30
58993;DHT22;44782;0.000;0.000;2023-08-24T05:29:58;25.20;60.30
58993;DHT22;44782;0.000;0.000;2023-08-24T05:32:14;25.20;60.30
58993;DHT22;44782;0.000;0.000;2023-08-24T05:34:30;25.20;60.40
58993;DHT22;44782;0.000;0.000;2023-08-24T05:36:45;25.20;60.30
58993;DHT22;44782;0.000;0.000;2023-08-24T05:39:01;25.20;60.40
58993;DHT22;44782;0.000;0.000;2023-08-24T05:41:17;25.20;60.40
58993;DHT22;44782;0.000;0.000;2023-08-24T05:43:33;25.20;60.50
58993;DHT22;44782;0.000;0.000;2023-08-24T05:45:49;25.20;60.50
58993;DHT22;44782;0.000;0.000;2023-08-24T05:48:05;25.20;60.60
58993;DHT22;44782;0.000;0.000;2023-08-24T05:50:21;25.20;60.60
58993;DHT22;44782;0.000;0.000;2023-08-24T05:52:37;25.20;60.70
58993;DHT22;44782;0.000;0.000;2023-08-24T05:54:53;25.20;60.70
58993;DHT22;44782;0.000;0.000;2023-08-24T05:57:08;25.20;60.80
58993;DHT22;44782;0.000;0.000;2023-08-24T05:59:24;25.20;60.80
58993;DHT22;44782;0.000;0.000;2023-08-24T06:01:40;25.20;60.70
58993;DHT22;44782;0.000;0.000;2023-08-24T06:03:57;25.20;60.70
58993;DHT22;44782;0.000;0.000;2023-08-24T06:06:12;25.20;60.70
58993;DHT22;44782;0.000;0.000;2023-08-24T06:08:28;25.20;60.60
58993;DHT22;44782;0.000;0.000;2023-08-24T06:10:44;25.20;60.60
58993;DHT22;44782;0.000;0.000;2023-08-24T06:12:59;25.20;60.60
58993;DHT22;44782;0.000;0.000;2023-08-24T06:15:17;25.20;60.60
58993;DHT22;44782;0.000;0.000;2023-08-24T06:17:34;25.20;60.60
58993;DHT22;44782;0.000;0.000;2023-08-24T06:19:51;25.20;60.60
58993;DHT22;44782;0.000;0.000;2023-08-24T06:22:07;25.20;60.60
58993;DHT22;44782;0.000;0.000;2023-08-24T06:24:22;25.20;60.50
58993;DHT22;44782;0.000;0.000;2023-08-24T06:26:38;25.20;60.50
58993;DHT22;44782;0.000;0.000;2023-08-24T06:28:54;25.20;60.50
58993;DHT22;44782;0.000;0.000;2023-08-24T06:31:11;25.20;60.50
58993;DHT22;44782;0.000;0.000;2023-08-24T06:33:33;25.20;60.50
58993;DHT22;44782;0.000;0.000;2023-08-24T06:35:49;25.20;60.30
58993;DHT22;44782;0.000;0.000;2023-08-24T06:38:05;25.20;60.40
58993;DHT22;44782;0.000;0.000;2023-08-24T06:40:21;25.20;60.40
58993;DHT22;44782;0.000;0.000;2023-08-24T06:42:37;25.20;60.40
58993;DHT22;44782;0.000;0.000;2023-08-24T06:44:52;25.20;60.30
58993;DHT22;44782;0.000;0.000;2023-08-24T06:47:08;25.20;60.30
58993;DHT22;44782;0.000;0.000;2023-08-24T06:49:24;25.20;60.30
58993;DHT22;44782;0.000;0.000;2023-08-24T06:51:39;25.20;60.40
58993;DHT22;44782;0.000;0.000;2023-08-24T06:53:55;25.20;60.40
58993;DHT22;44782;0.000;0.000;2023-08-24T06:56:11;25.20;60.40
58993;DHT22;44782;0.000;0.000;2023-08-24T06:58:27;25.20;60.30
58993;DHT22;44782;0.000;0.000;2023-08-24T07:00:43;25.20;60.30
58993;DHT22;44782;0.000;0.000;2023-08-24T07:02:59;25.20;60.30
58993;DHT22;44782;0.000;0.000;2023-08-24T07:05:15;25.20;60.30
58993;DHT22;44782;0.000;0.000;2023-08-24T07:07:34;25.20;60.30
58993;DHT22;44782;0.000;0.000;2023-08-24T07:09:50;25.20;60.30
58993;DHT22;44782;0.000;0.000;2023-08-24T07:12:06;25.20;60.40
58993;DHT22;44782;0.000;0.000;2023-08-24T07:14:22;25.20;60.30
58993;DHT22;44782;0.000;0.000;2023-08-24T07:16:38;25.30;60.50
58993;DHT22;44782;0.000;0.000;2023-08-24T07:18:53;25.20;60.30
58993;DHT22;44782;0.000;0.000;2023-08-24T07:21:09;25.30;60.40
58993;DHT22;44782;0.000;0.000;2023-08-24T07:23:25;25.30;60.40
58993;DHT22;44782;0.000;0.000;2023-08-24T07:25:41;25.30;60.40
58993;DHT22;44782;0.000;0.000;2023-08-24T07:27:57;25.30;60.40
58993;DHT22;44782;0.000;0.000;2023-08-24T07:30:14;25.30;60.40
58993;DHT22;44782;0.000;0.000;2023-08-24T07:32:30;25.30;60.40
58993;DHT22;44782;0.000;0.000;2023-08-24T07:34:45;25.30;60.50
58993;DHT22;44782;0.000;0.000;2023-08-24T07:37:01;25.30;60.40
58993;DHT22;44782;0.000;0.000;2023-08-24T07:39:17;25.30;60.40
58993;DHT22;44782;0.000;0.000;2023-08-24T07:41:33;25.30;60.40
58993;DHT22;44782;0.000;0.000;2023-08-24T07:43:48;25.30;60.50
58993;DHT22;44782;0.000;0.000;2023-08-24T07:46:04;25.30;61.30
58993;DHT22;44782;0.000;0.000;2023-08-24T07:48:20;25.30;60.50
58993;DHT22;44782;0.000;0.000;2023-08-24T07:50:36;25.30;60.50
58993;DHT22;44782;0.000;0.000;2023-08-24T07:52:52;25.30;60.50
58993;DHT22;44782;0.000;0.000;2023-08-24T07:55:08;25.30;60.50
58993;DHT22;44782;0.000;0.000;2023-08-24T07:57:25;25.30;60.50
58993;DHT22;44782;0.000;0.000;2023-08-24T07:59:41;25.30;60.50
58993;DHT22;44782;0.000;0.000;2023-08-24T08:01:57;25.30;60.60
58993;DHT22;44782;0.000;0.000;2023-08-24T08:04:13;25.30;60.50
58993;DHT22;44782;0.000;0.000;2023-08-24T08:06:29;25.30;60.60
58993;DHT22;44782;0.000;0.000;2023-08-24T08:08:45;25.30;60.60
58993;DHT22;44782;0.000;0.000;2023-08-24T08:11:02;25.30;60.60
58993;DHT22;44782;0.000;0.000;2023-08-24T08:13:18;25.30;60.60
58993;DHT22;44782;0.000;0.000;2023-08-24T08:15:34;25.30;60.60
58993;DHT22;44782;0.000;0.000;2023-08-24T08:17:51;25.30;60.70
58993;DHT22;44782;0.000;0.000;2023-08-24T08:20:07;25.30;60.60
58993;DHT22;44782;0.000;0.000;2023-08-24T08:22:23;25.40;60.80
58993;DHT22;44782;0.000;0.000;2023-08-24T08:24:40;25.40;60.80
58993;DHT22;44782;0.000;0.000;2023-08-24T08:26:56;25.40;61.00
58993;DHT22;44782;0.000;0.000;2023-08-24T08:29:12;25.40;61.00
58993;DHT22;44782;0.000;0.000;2023-08-24T08:31:27;25.40;61.10
58993;DHT22;44782;0.000;0.000;2023-08-24T08:33:43;25.40;61.10
58993;DHT22;44782;0.000;0.000;2023-08-24T08:35:59;25.40;61.10
58993;DHT22;44782;0.000;0.000;2023-08-24T08:38:15;25.40;61.10
58993;DHT22;44782;0.000;0.000;2023-08-24T08:40:30;25.40;61.10
58993;DHT22;44782;0.000;0.000;2023-08-24T08:42:46;25.40;61.10
58993;DHT22;44782;0.000;0.000;2023-08-24T08:45:03;25.40;61.00
58993;DHT22;44782;0.000;0.000;2023-08-24T08:47:20;25.40;61.00
58993;DHT22;44782;0.000;0.000;2023-08-24T08:49:42;25.40;61.10
58993;DHT22;44782;0.000;0.000;2023-08-24T08:51:58;25.40;61.00
58993;DHT22;44782;0.000;0.000;2023-08-24T08:54:14;25.40;61.10
58993;DHT22;44782;0.000;0.000;2023-08-24T08:56:30;25.40;61.10
58993;DHT22;44782;0.000;0.000;2023-08-24T08:58:46;25.40;61.20
58993;DHT22;44782;0.000;0.000;2023-08-24T09:01:03;25.40;61.50
58993;DHT22;44782;0.000;0.000;2023-08-24T09:03:19;25.40;61.10
58993;DHT22;44782;0.000;0.000;2023-08-24T09:05:37;25.40;61.20
58993;DHT22;44782;0.000;0.000;2023-08-24T09:07:54;25.40;61.20
58993;DHT22;44782;0.000;0.000;2023-08-24T09:10:10;25.40;61.20
58993;DHT22;44782;0.000;0.000;2023-08-24T09:12:30;25.40;61.20
58993;DHT22;44782;0.000;0.000;2023-08-24T09:14:47;25.50;61.20
58993;DHT22;44782;0.000;0.000;2023-08-24T09:17:03;25.50;61.30
58993;DHT22;44782;0.000;0.000;2023-08-24T09:19:18;25.50;61.10
58993;DHT22;44782;0.000;0.000;2023-08-24T09:21:37;25.50;61.10
58993;DHT22;44782;0.000;0.000;2023-08-24T09:23:55;25.50;61.10
58993;DHT22;44782;0.000;0.000;2023-08-24T09:26:11;25.50;61.10
58993;DHT22;44782;0.000;0.000;2023-08-24T09:28:27;25.50;61.10
58993;DHT22;44782;0.000;0.000;2023-08-24T09:30:44;25.50;61.10
58993;DHT22;44782;0.000;0.000;2023-08-24T09:33:02;25.50;61.10
58993;DHT22;44782;0.000;0.000;2023-08-24T09:35:23;25.50;61.20
58993;DHT22;44782;0.000;0.000;2023-08-24T09:37:39;25.50;61.10
58993;DHT22;44782;0.000;0.000;2023-08-24T09:40:02;25.50;61.10
58993;DHT22;44782;0.000;0.000;2023-08-24T09:42:25;25.50;61.10
58993;DHT22;44782;0.000;0.000;2023-08-24T09:44:44;25.50;61.10
58993;DHT22;44782;0.000;0.000;2023-08-24T09:47:08;25.50;61.20
58993;DHT22;44782;0.000;0.000;2023-08-24T09:49:28;25.50;61.20
58993;DHT22;44782;0.000;0.000;2023-08-24T09:51:45;25.50;61.20
58993;DHT22;44782;0.000;0.000;2023-08-24T09:54:05;25.50;61.30
58993;DHT22;44782;0.000;0.000;2023-08-24T09:56:28;25.50;61.20
58993;DHT22;44782;0.000;0.000;2023-08-24T09:58:45;25.50;61.30
58993;DHT22;44782;0.000;0.000;2023-08-24T10:01:02;25.50;61.40
58993;DHT22;44782;0.000;0.000;2023-08-24T10:03:20;25.50;61.40
58993;DHT22;44782;0.000;0.000;2023-08-24T10:05:45;25.50;61.40
58993;DHT22;44782;0.000;0.000;2023-08-24T10:08:03;25.50;61.50
58993;DHT22;44782;0.000;0.000;2023-08-24T10:10:20;25.50;61.50
58993;DHT22;44782;0.000;0.000;2023-08-24T10:12:41;25.50;61.50
58993;DHT22;44782;0.000;0.000;2023-08-24T10:15:00;25.50;61.50
58993;DHT22;44782;0.000;0.000;2023-08-24T10:17:18;25.50;61.50
58993;DHT22;44782;0.000;0.000;2023-08-24T10:19:35;25.50;61.50
58993;DHT22;44782;0.000;0.000;2023-08-24T10:21:53;25.50;61.50
58993;DHT22;44782;0.000;0.000;2023-08-24T10:24:13;25.50;61.50
58993;DHT22;44782;0.000;0.000;2023-08-24T10:26:31;25.50;61.50
58993;DHT22;44782;0.000;0.000;2023-08-24T10:28:47;25.50;61.50
58993;DHT22;44782;0.000;0.000;2023-08-24T10:31:05;25.50;61.60
58993;DHT22;44782;0.000;0.000;2023-08-24T10:33:22;25.50;61.50
58993;DHT22;44782;0.000;0.000;2023-08-24T10:35:39;25.50;61.60
58993;DHT22;44782;0.000;0.000;2023-08-24T10:37:58;25.50;61.50
58993;DHT22;44782;0.000;0.000;2023-08-24T10:40:14;25.50;61.40
58993;DHT22;44782;0.000;0.000;2023-08-24T10:42:46;25.50;61.40
58993;DHT22;44782;0.000;0.000;2023-08-24T10:45:02;25.50;61.50
58993;DHT22;44782;0.000;0.000;2023-08-24T10:49:34;25.50;61.40
58993;DHT22;44782;0.000;0.000;2023-08-24T10:51:50;25.50;61.40
58993;DHT22;44782;0.000;0.000;2023-08-24T10:54:06;25.50;61.50
58993;DHT22;44782;0.000;0.000;2023-08-24T10:59:11;25.50;61.30
58993;DHT22;44782;0.000;0.000;2023-08-24T11:01:27;25.50;61.10
58993;DHT22;44782;0.000;0.000;2023-08-24T11:03:54;25.50;61.40
58993;DHT22;44782;0.000;0.000;2023-08-24T11:06:20;25.50;61.30
58993;DHT22;44782;0.000;0.000;2023-08-24T11:08:47;25.50;61.20
58993;DHT22;44782;0.000;0.000;2023-08-24T11:11:03;25.50;61.20
58993;DHT22;44782;0.000;0.000;2023-08-24T11:13:19;25.50;61.40
58993;DHT22;44782;0.000;0.000;2023-08-24T11:15:41;25.50;61.40
58993;DHT22;44782;0.000;0.000;2023-08-24T11:20:45;25.50;61.10
58993;DHT22;44782;0.000;0.000;2023-08-24T11:23:03;25.50;61.30
58993;DHT22;44782;0.000;0.000;2023-08-24T11:25:19;25.50;61.50
58993;DHT22;44782;0.000;0.000;2023-08-24T11:27:35;25.50;61.40
58993;DHT22;44782;0.000;0.000;2023-08-24T11:30:00;25.50;61.40
58993;DHT22;44782;0.000;0.000;2023-08-24T11:32:18;25.50;61.10
58993;DHT22;44782;0.000;0.000;2023-08-24T11:34:34;25.50;61.30
58993;DHT22;44782;0.000;0.000;2023-08-24T11:36:51;25.50;61.30
58993;DHT22;44782;0.000;0.000;2023-08-24T11:39:07;25.50;61.40
58993;DHT22;44782;0.000;0.000;2023-08-24T11:41:29;25.50;61.40
58993;DHT22;44782;0.000;0.000;2023-08-24T11:43:46;25.40;61.40
58993;DHT22;44782;0.000;0.000;2023-08-24T11:46:03;25.40;61.50
58993;DHT22;44782;0.000;0.000;2023-08-24T11:48:23;25.50;61.50
58993;DHT22;44782;0.000;0.000;2023-08-24T11:50:39;25.50;61.40
58993;DHT22;44782;0.000;0.000;2023-08-24T11:52:55;25.50;61.30
58993;DHT22;44782;0.000;0.000;2023-08-24T11:55:11;25.50;61.50
58993;DHT22;44782;0.000;0.000;2023-08-24T11:57:27;25.50;61.50
58993;DHT22;44782;0.000;0.000;2023-08-24T11:59:43;25.50;61.50
58993;DHT22;44782;0.000;0.000;2023-08-24T12:02:00;25.50;61.60
58993;DHT22;44782;0.000;0.000;2023-08-24T12:04:16;25.40;61.50
58993;DHT22;44782;0.000;0.000;2023-08-24T12:06:31;25.50;61.50
58993;DHT22;44782;0.000;0.000;2023-08-24T12:08:47;25.50;61.50
58993;DHT22;44782;0.000;0.000;2023-08-24T12:11:10;25.50;62.40
58993;DHT22;44782;0.000;0.000;2023-08-24T12:13:26;25.50;61.60
58993;DHT22;44782;0.000;0.000;2023-08-24T12:15:48;25.50;61.70
58993;DHT22;44782;0.000;0.000;2023-08-24T12:18:10;25.40;61.60
58993;DHT22;44782;0.000;0.000;2023-08-24T12:20:26;25.50;61.60
58993;DHT22;44782;0.000;0.000;2023-08-24T12:22:41;25.50;61.80
58993;DHT22;44782;0.000;0.000;2023-08-24T12:24:57;25.50;61.70
58993;DHT22;44782;0.000;0.000;2023-08-24T12:27:25;25.50;61.80
58993;DHT22;44782;0.000;0.000;2023-08-24T12:29:45;25.50;61.60
58993;DHT22;44782;0.000;0.000;2023-08-24T12:32:01;25.50;61.80
58993;DHT22;44782;0.000;0.000;2023-08-24T12:34:17;25.50;61.80
58993;DHT22;44782;0.000;0.000;2023-08-24T12:36:33;25.50;61.80
58993;DHT22;44782;0.000;0.000;2023-08-24T12:38:51;25.50;61.90
58993;DHT22;44782;0.000;0.000;2023-08-24T12:41:07;25.50;62.60
58993;DHT22;44782;0.000;0.000;2023-08-24T12:43:22;25.50;61.90
58993;DHT22;44782;0.000;0.000;2023-08-24T12:45:39;25.50;61.90
58993;DHT22;44782;0.000;0.000;2023-08-24T12:47:55;25.50;61.90
58993;DHT22;44782;0.000;0.000;2023-08-24T12:50:10;25.50;61.90
58993;DHT22;44782;0.000;0.000;2023-08-24T12:52:26;25.50;62.00
58993;DHT22;44782;0.000;0.000;2023-08-24T12:54:42;25.50;62.00
58993;DHT22;44782;0.000;0.000;2023-08-24T12:56:58;25.50;62.00
58993;DHT22;44782;0.000;0.000;2023-08-24T12:59:13;25.50;62.00
58993;DHT22;44782;0.000;0.000;2023-08-24T13:01:29;25.50;62.00
58993;DHT22;44782;0.000;0.000;2023-08-24T13:03:44;25.50;62.00
58993;DHT22;44782;0.000;0.000;2023-08-24T13:06:00;25.50;62.00
58993;DHT22;44782;0.000;0.000;2023-08-24T13:08:16;25.50;62.70
58993;DHT22;44782;0.000;0.000;2023-08-24T13:10:32;25.50;62.00
58993;DHT22;44782;0.000;0.000;2023-08-24T13:12:47;25.50;62.00
58993;DHT22;44782;0.000;0.000;2023-08-24T13:15:03;25.50;62.00
58993;DHT22;44782;0.000;0.000;2023-08-24T13:17:19;25.50;62.00
58993;DHT22;44782;0.000;0.000;2023-08-24T13:19:35;25.50;62.00
58993;DHT22;44782;0.000;0.000;2023-08-24T13:21:50;25.50;62.10
58993;DHT22;44782;0.000;0.000;2023-08-24T13:24:06;25.50;62.10
58993;DHT22;44782;0.000;0.000;2023-08-24T13:26:22;25.50;62.10
58993;DHT22;44782;0.000;0.000;2023-08-24T13:28:40;25.50;62.10
58993;DHT22;44782;0.000;0.000;2023-08-24T13:30:56;25.50;62.10
58993;DHT22;44782;0.000;0.000;2023-08-24T13:33:12;25.50;62.10
58993;DHT22;44782;0.000;0.000;2023-08-24T13:35:27;25.50;62.20
58993;DHT22;44782;0.000;0.000;2023-08-24T13:37:43;25.50;62.20
58993;DHT22;44782;0.000;0.000;2023-08-24T13:39:59;25.50;62.20
58993;DHT22;44782;0.000;0.000;2023-08-24T13:42:15;25.50;62.20
58993;DHT22;44782;0.000;0.000;2023-08-24T13:44:30;25.50;62.30
58993;DHT22;44782;0.000;0.000;2023-08-24T13:46:46;25.50;62.40
58993;DHT22;44782;0.000;0.000;2023-08-24T13:49:02;25.60;62.70
58993;DHT22;44782;0.000;0.000;2023-08-24T13:51:18;25.50;62.60
58993;DHT22;44782;0.000;0.000;2023-08-24T13:53:33;25.50;62.50
58993;DHT22;44782;0.000;0.000;2023-08-24T13:55:49;25.50;62.50
58993;DHT22;44782;0.000;0.000;2023-08-24T13:58:04;25.60;62.70
58993;DHT22;44782;0.000;0.000;2023-08-24T14:00:20;25.60;62.70
58993;DHT22;44782;0.000;0.000;2023-08-24T14:02:38;25.60;62.70
58993;DHT22;44782;0.000;0.000;2023-08-24T14:04:54;25.60;62.50
58993;DHT22;44782;0.000;0.000;2023-08-24T14:07:10;25.60;62.70
58993;DHT22;44782;0.000;0.000;2023-08-24T14:09:25;25.50;63.40
58993;DHT22;44782;0.000;0.000;2023-08-24T14:11:41;25.60;62.70
58993;DHT22;44782;0.000;0.000;2023-08-24T14:13:59;25.60;62.70
58993;DHT22;44782;0.000;0.000;2023-08-24T14:16:15;25.60;62.70
58993;DHT22;44782;0.000;0.000;2023-08-24T14:18:31;25.60;62.70
58993;DHT22;44782;0.000;0.000;2023-08-24T14:20:46;25.60;62.50
58993;DHT22;44782;0.000;0.000;2023-08-24T14:23:02;25.60;62.70
58993;DHT22;44782;0.000;0.000;2023-08-24T14:25:18;25.60;62.60
58993;DHT22;44782;0.000;0.000;2023-08-24T14:27:34;25.60;62.70
58993;DHT22;44782;0.000;0.000;2023-08-24T14:29:50;25.60;62.60
58993;DHT22;44782;0.000;0.000;2023-08-24T14:32:05;25.60;62.80
58993;DHT22;44782;0.000;0.000;2023-08-24T14:34:21;25.60;62.70
58993;DHT22;44782;0.000;0.000;2023-08-24T14:36:36;25.60;62.70
58993;DHT22;44782;0.000;0.000;2023-08-24T14:38:52;25.60;62.80
58993;DHT22;44782;0.000;0.000;2023-08-24T14:41:12;25.60;62.70
58993;DHT22;44782;0.000;0.000;2023-08-24T14:43:28;25.60;62.70
58993;DHT22;44782;0.000;0.000;2023-08-24T14:45:44;25.60;62.80
58993;DHT22;44782;0.000;0.000;2023-08-24T14:48:00;25.60;62.80
58993;DHT22;44782;0.000;0.000;2023-08-24T14:50:15;25.60;62.80
58993;DHT22;44782;0.000;0.000;2023-08-24T14:52:31;25.60;62.90
58993;DHT22;44782;0.000;0.000;2023-08-24T14:54:47;25.60;62.90